sensor_id;sensor_type;location;lat;lon;timestamp;pressure;altitude;pressure_sealevel;temperature;humidity
11605;BME280;5858;43.076;25.626;2023-04-27T00:01:57;98893.41;;;10.45;100.00
11605;BME280;5858;43.076;25.626;2023-04-27T00:04:24;98912.34;;;10.71;100.00
11605;BME280;5858;43.076;25.626;2023-04-27T00:06:51;98813.50;;;10.14;100.00
11605;BME280;5858;43.076;25.626;2023-04-27T00:09:18;98797.41;;;9.86;100.00
11605;BME280;5858;43.076;25.626;2023-04-27T00:11:45;98839.22;;;10.15;100.00
11605;BME280;5858;43.076;25.626;2023-04-27T00:14:13;98871.25;;;10.29;100.00
11605;BME280;5858;43.076;25.626;2023-04-27T00:16:41;98902.38;;;10.37;100.00
11605;BME280;5858;43.076;25.626;2023-04-27T00:19:08;98912.56;;;10.27;100.00
11605;BME280;5858;43.076;25.626;2023-04-27T00:21:35;98945.75;;;10.32;100.00
11605;BME280;5858;43.076;25.626;2023-04-27T00:24:02;98903.69;;;10.05;100.00
11605;BME280;5858;43.076;25.626;2023-04-27T00:26:29;98946.69;;;10.25;100.00
11605;BME280;5858;43.076;25.626;2023-04-27T00:28:56;98928.66;;;10.12;100.00
11605;BME280;5858;43.076;25.626;2023-04-27T00:31:24;98947.34;;;10.27;100.00
11605;BME280;5858;43.076;25.626;2023-04-27T00:33:51;98915.22;;;10.05;100.00
11605;BME280;5858;43.076;25.626;2023-04-27T00:36:18;98926.28;;;10.02;100.00
11605;BME280;5858;43.076;25.626;2023-04-27T00:38:45;98967.13;;;10.32;100.00
11605;BME280;5858;43.076;25.626;2023-04-27T00:41:12;98947.44;;;10.19;100.00
11605;BME280;5858;43.076;25.626;2023-04-27T00:43:43;98955.31;;;10.42;100.00
11605;BME280;5858;43.076;25.626;2023-04-27T00:46:12;98913.88;;;10.16;100.00
11605;BME280;5858;43.076;25.626;2023-04-27T00:48:41;98967.09;;;10.47;100.00
11605;BME280;5858;43.076;25.626;2023-04-27T00:51:08;98945.09;;;10.30;100.00
11605;BME280;5858;43.076;25.626;2023-04-27T00:53:36;98907.59;;;10.02;100.00
11605;BME280;5858;43.076;25.626;2023-04-27T00:56:04;98944.44;;;10.43;100.00
11605;BME280;5858;43.076;25.626;2023-04-27T00:58:31;98912.38;;;9.92;100.00
11605;BME280;5858;43.076;25.626;2023-04-27T01:00:58;98867.63;;;9.58;100.00
11605;BME280;5858;43.076;25.626;2023-04-27T01:03:26;98987.00;;;10.08;100.00
11605;BME280;5858;43.076;25.626;2023-04-27T01:05:54;98935.91;;;9.97;100.00
11605;BME280;5858;43.076;25.626;2023-04-27T01:08:23;98934.59;;;9.93;100.00
11605;BME280;5858;43.076;25.626;2023-04-27T01:10:50;98983.78;;;10.13;100.00
11605;BME280;5858;43.076;25.626;2023-04-27T01:13:17;98931.25;;;9.69;100.00
11605;BME280;5858;43.076;25.626;2023-04-27T01:15:44;98970.44;;;9.98;100.00
11605;BME280;5858;43.076;25.626;2023-04-27T01:18:11;98974.84;;;10.06;100.00
11605;BME280;5858;43.076;25.626;2023-04-27T01:20:38;99001.38;;;10.22;100.00
11605;BME280;5858;43.076;25.626;2023-04-27T01:23:12;98989.19;;;10.20;100.00
11605;BME280;5858;43.076;25.626;2023-04-27T01:25:39;98957.81;;;9.92;100.00
11605;BME280;5858;43.076;25.626;2023-04-27T01:28:06;98998.91;;;10.21;100.00
11605;BME280;5858;43.076;25.626;2023-04-27T01:30:33;98909.88;;;9.69;100.00
11605;BME280;5858;43.076;25.626;2023-04-27T01:33:00;98996.13;;;10.14;100.00
11605;BME280;5858;43.076;25.626;2023-04-27T01:35:27;98989.88;;;10.07;100.00
11605;BME280;5858;43.076;25.626;2023-04-27T01:37:55;99005.59;;;10.17;100.00
11605;BME280;5858;43.076;25.626;2023-04-27T01:40:24;98946.72;;;9.44;100.00
11605;BME280;5858;43.076;25.626;2023-04-27T01:42:50;99003.94;;;9.50;100.00
11605;BME280;5858;43.076;25.626;2023-04-27T01:45:17;99044.09;;;9.57;100.00
11605;BME280;5858;43.076;25.626;2023-04-27T01:47:44;98955.81;;;8.91;100.00
11605;BME280;5858;43.076;25.626;2023-04-27T01:50:11;99027.56;;;9.38;100.00
11605;BME280;5858;43.076;25.626;2023-04-27T01:52:38;98955.72;;;8.84;100.00
11605;BME280;5858;43.076;25.626;2023-04-27T01:55:06;98995.22;;;9.04;100.00
11605;BME280;5858;43.076;25.626;2023-04-27T01:57:35;98945.00;;;8.70;100.00
11605;BME280;5858;43.076;25.626;2023-04-27T02:00:02;99038.81;;;9.34;100.00
11605;BME280;5858;43.076;25.626;2023-04-27T02:02:30;99003.44;;;8.79;100.00
11605;BME280;5858;43.076;25.626;2023-04-27T02:04:57;98999.84;;;8.72;100.00
11605;BME280;5858;43.076;25.626;2023-04-27T02:07:24;99054.22;;;9.09;100.00
11605;BME280;5858;43.076;25.626;2023-04-27T02:09:51;99038.75;;;9.04;100.00
11605;BME280;5858;43.076;25.626;2023-04-27T02:12:18;99053.97;;;9.19;100.00
11605;BME280;5858;43.076;25.626;2023-04-27T02:14:47;98941.47;;;8.55;100.00
11605;BME280;5858;43.076;25.626;2023-04-27T02:17:14;98979.50;;;8.71;100.00
11605;BME280;5858;43.076;25.626;2023-04-27T02:19:41;99043.28;;;9.19;100.00
11605;BME280;5858;43.076;25.626;2023-04-27T02:22:08;99005.75;;;8.82;100.00
11605;BME280;5858;43.076;25.626;2023-04-27T02:24:35;98999.59;;;8.59;100.00
11605;BME280;5858;43.076;25.626;2023-04-27T02:27:02;98977.97;;;8.54;100.00
11605;BME280;5858;43.076;25.626;2023-04-27T02:29:29;98972.69;;;8.46;100.00
11605;BME280;5858;43.076;25.626;2023-04-27T02:31:58;99054.13;;;9.02;100.00
11605;BME280;5858;43.076;25.626;2023-04-27T02:34:25;99046.06;;;8.88;99.25
11605;BME280;5858;43.076;25.626;2023-04-27T02:36:51;98993.81;;;8.56;99.06
11605;BME280;5858;43.076;25.626;2023-04-27T02:39:18;99022.34;;;8.70;99.08
11605;BME280;5858;43.076;25.626;2023-04-27T02:41:45;98967.97;;;8.25;96.23
11605;BME280;5858;43.076;25.626;2023-04-27T02:44:12;99011.56;;;8.63;96.63
11605;BME280;5858;43.076;25.626;2023-04-27T02:46:39;99060.41;;;8.87;95.54
11605;BME280;5858;43.076;25.626;2023-04-27T02:49:08;98957.19;;;8.18;96.07
11605;BME280;5858;43.076;25.626;2023-04-27T02:51:35;99058.50;;;8.72;95.44
11605;BME280;5858;43.076;25.626;2023-04-27T02:54:02;99047.69;;;8.43;96.89
11605;BME280;5858;43.076;25.626;2023-04-27T02:56:30;99055.97;;;8.56;96.53
11605;BME280;5858;43.076;25.626;2023-04-27T02:58:57;98985.56;;;8.11;96.43
11605;BME280;5858;43.076;25.626;2023-04-27T03:01:24;98950.53;;;7.92;96.74
11605;BME280;5858;43.076;25.626;2023-04-27T03:03:51;99062.97;;;8.57;98.10
11605;BME280;5858;43.076;25.626;2023-04-27T03:06:19;98974.66;;;7.90;97.35
11605;BME280;5858;43.076;25.626;2023-04-27T03:08:46;99034.00;;;8.46;98.43
11605;BME280;5858;43.076;25.626;2023-04-27T03:11:13;99019.09;;;8.29;98.52
11605;BME280;5858;43.076;25.626;2023-04-27T03:13:41;99038.28;;;8.24;98.83
11605;BME280;5858;43.076;25.626;2023-04-27T03:16:08;99018.53;;;8.10;99.47
11605;BME280;5858;43.076;25.626;2023-04-27T03:18:36;99091.00;;;8.45;99.75
11605;BME280;5858;43.076;25.626;2023-04-27T03:21:05;99072.09;;;8.24;100.00
11605;BME280;5858;43.076;25.626;2023-04-27T03:23:33;99093.97;;;8.50;100.00
11605;BME280;5858;43.076;25.626;2023-04-27T03:26:00;99089.41;;;8.36;100.00
11605;BME280;5858;43.076;25.626;2023-04-27T03:28:31;99108.13;;;8.59;100.00
11605;BME280;5858;43.076;25.626;2023-04-27T03:30:57;99071.34;;;8.46;99.17
11605;BME280;5858;43.076;25.626;2023-04-27T03:33:24;99094.50;;;8.45;99.20
11605;BME280;5858;43.076;25.626;2023-04-27T03:35:57;99055.59;;;8.28;99.36
11605;BME280;5858;43.076;25.626;2023-04-27T03:38:24;98977.16;;;7.61;98.93
11605;BME280;5858;43.076;25.626;2023-04-27T03:40:53;99072.31;;;8.14;99.68
11605;BME280;5858;43.076;25.626;2023-04-27T03:43:20;98991.25;;;7.69;98.50
11605;BME280;5858;43.076;25.626;2023-04-27T03:45:47;99097.63;;;8.57;99.21
11605;BME280;5858;43.076;25.626;2023-04-27T03:48:15;99009.84;;;8.16;100.00
11605;BME280;5858;43.076;25.626;2023-04-27T03:50:43;99107.28;;;8.81;99.50
11605;BME280;5858;43.076;25.626;2023-04-27T03:53:11;98965.31;;;7.63;98.49
11605;BME280;5858;43.076;25.626;2023-04-27T03:55:39;99141.50;;;8.77;98.80
11605;BME280;5858;43.076;25.626;2023-04-27T03:58:08;99101.06;;;8.66;99.02
11605;BME280;5858;43.076;25.626;2023-04-27T04:00:35;99120.16;;;8.77;99.30
11605;BME280;5858;43.076;25.626;2023-04-27T04:03:03;99115.78;;;8.84;98.50
11605;BME280;5858;43.076;25.626;2023-04-27T04:05:30;99105.50;;;8.96;99.85
11605;BME280;5858;43.076;25.626;2023-04-27T04:07:57;99067.22;;;8.66;100.00
11605;BME280;5858;43.076;25.626;2023-04-27T04:10:24;98956.44;;;8.02;99.80
11605;BME280;5858;43.076;25.626;2023-04-27T04:12:53;98985.59;;;8.34;98.44
11605;BME280;5858;43.076;25.626;2023-04-27T04:15:22;99142.34;;;9.24;97.74
11605;BME280;5858;43.076;25.626;2023-04-27T04:17:55;99123.59;;;8.86;100.00
11605;BME280;5858;43.076;25.626;2023-04-27T04:20:22;99039.16;;;8.47;100.00
11605;BME280;5858;43.076;25.626;2023-04-27T04:22:49;99153.44;;;9.35;100.00
11605;BME280;5858;43.076;25.626;2023-04-27T04:25:19;99119.06;;;9.18;99.18
11605;BME280;5858;43.076;25.626;2023-04-27T04:27:46;99126.34;;;9.24;94.68
11605;BME280;5858;43.076;25.626;2023-04-27T04:30:21;99104.19;;;9.00;95.86
11605;BME280;5858;43.076;25.626;2023-04-27T04:32:48;99104.47;;;9.05;97.23
11605;BME280;5858;43.076;25.626;2023-04-27T04:35:15;99158.00;;;9.27;97.64
11605;BME280;5858;43.076;25.626;2023-04-27T04:37:44;99084.66;;;8.77;97.68
11605;BME280;5858;43.076;25.626;2023-04-27T04:40:12;99090.16;;;8.52;92.92
11605;BME280;5858;43.076;25.626;2023-04-27T04:42:42;98954.81;;;7.70;90.62
11605;BME280;5858;43.076;25.626;2023-04-27T04:45:11;99060.91;;;8.28;92.06
11605;BME280;5858;43.076;25.626;2023-04-27T04:47:40;99150.69;;;8.98;90.81
11605;BME280;5858;43.076;25.626;2023-04-27T04:50:09;99140.59;;;8.62;93.14
11605;BME280;5858;43.076;25.626;2023-04-27T04:52:37;99062.13;;;8.57;92.85
11605;BME280;5858;43.076;25.626;2023-04-27T04:55:05;99133.19;;;9.03;92.46
11605;BME280;5858;43.076;25.626;2023-04-27T04:57:32;99058.03;;;8.69;92.20
11605;BME280;5858;43.076;25.626;2023-04-27T05:00:02;99101.50;;;9.00;94.38
11605;BME280;5858;43.076;25.626;2023-04-27T05:02:31;99125.31;;;9.25;93.92
11605;BME280;5858;43.076;25.626;2023-04-27T05:04:59;99179.22;;;9.66;91.41
11605;BME280;5858;43.076;25.626;2023-04-27T05:07:26;99180.97;;;9.59;95.06
11605;BME280;5858;43.076;25.626;2023-04-27T05:09:54;99113.47;;;9.27;96.47
11605;BME280;5858;43.076;25.626;2023-04-27T05:12:21;99128.00;;;9.48;94.29
11605;BME280;5858;43.076;25.626;2023-04-27T05:14:48;99194.69;;;9.93;93.64
11605;BME280;5858;43.076;25.626;2023-04-27T05:17:15;99123.41;;;9.56;95.56
11605;BME280;5858;43.076;25.626;2023-04-27T05:19:44;99160.31;;;10.05;94.84
11605;BME280;5858;43.076;25.626;2023-04-27T05:22:13;99150.78;;;9.88;93.10
11605;BME280;5858;43.076;25.626;2023-04-27T05:24:40;99189.38;;;10.37;92.24
11605;BME280;5858;43.076;25.626;2023-04-27T05:27:07;99122.50;;;9.78;93.82
11605;BME280;5858;43.076;25.626;2023-04-27T05:29:34;99098.25;;;9.80;93.22
11605;BME280;5858;43.076;25.626;2023-04-27T05:32:01;99191.34;;;10.44;93.28
11605;BME280;5858;43.076;25.626;2023-04-27T05:34:28;99122.78;;;10.13;92.29
11605;BME280;5858;43.076;25.626;2023-04-27T05:36:55;99161.50;;;10.17;93.22
11605;BME280;5858;43.076;25.626;2023-04-27T05:39:24;99177.84;;;10.22;89.56
11605;BME280;5858;43.076;25.626;2023-04-27T05:41:51;99150.44;;;10.05;88.55
11605;BME280;5858;43.076;25.626;2023-04-27T05:44:18;99152.38;;;10.12;92.58
11605;BME280;5858;43.076;25.626;2023-04-27T05:46:45;99173.81;;;10.26;92.95
11605;BME280;5858;43.076;25.626;2023-04-27T05:49:12;99145.22;;;10.27;92.52
11605;BME280;5858;43.076;25.626;2023-04-27T05:51:39;99107.97;;;9.96;92.31
11605;BME280;5858;43.076;25.626;2023-04-27T05:54:07;99197.84;;;10.70;91.59
11605;BME280;5858;43.076;25.626;2023-04-27T05:56:36;99231.06;;;10.76;87.93
11605;BME280;5858;43.076;25.626;2023-04-27T05:59:04;99166.59;;;10.27;89.01
11605;BME280;5858;43.076;25.626;2023-04-27T06:01:32;99226.09;;;10.73;90.07
11605;BME280;5858;43.076;25.626;2023-04-27T06:03:59;99187.16;;;10.56;89.53
11605;BME280;5858;43.076;25.626;2023-04-27T06:06:26;99196.78;;;10.50;87.17
11605;BME280;5858;43.076;25.626;2023-04-27T06:08:53;99109.63;;;10.12;87.18
11605;BME280;5858;43.076;25.626;2023-04-27T06:11:20;99201.13;;;10.87;85.10
11605;BME280;5858;43.076;25.626;2023-04-27T06:13:49;99113.03;;;10.20;81.07
11605;BME280;5858;43.076;25.626;2023-04-27T06:16:16;99230.69;;;10.94;83.83
11605;BME280;5858;43.076;25.626;2023-04-27T06:18:43;99205.94;;;10.77;86.41
11605;BME280;5858;43.076;25.626;2023-04-27T06:21:11;99167.22;;;10.73;87.41
11605;BME280;5858;43.076;25.626;2023-04-27T06:23:38;99229.06;;;11.14;86.80
11605;BME280;5858;43.076;25.626;2023-04-27T06:26:05;99162.69;;;10.73;86.89
11605;BME280;5858;43.076;25.626;2023-04-27T06:28:32;99193.47;;;10.99;88.22
11605;BME280;5858;43.076;25.626;2023-04-27T06:31:00;99178.09;;;11.08;87.47
11605;BME280;5858;43.076;25.626;2023-04-27T06:33:28;99128.47;;;10.69;84.50
11605;BME280;5858;43.076;25.626;2023-04-27T06:35:55;99220.03;;;11.58;83.87
11605;BME280;5858;43.076;25.626;2023-04-27T06:38:25;99142.53;;;11.14;80.80
11605;BME280;5858;43.076;25.626;2023-04-27T06:40:52;99210.81;;;11.24;76.30
11605;BME280;5858;43.076;25.626;2023-04-27T06:43:19;99209.94;;;11.17;77.19
11605;BME280;5858;43.076;25.626;2023-04-27T06:45:46;99219.66;;;11.40;78.31
11605;BME280;5858;43.076;25.626;2023-04-27T06:48:15;99162.53;;;10.60;76.12
11605;BME280;5858;43.076;25.626;2023-04-27T06:50:43;99168.72;;;10.61;77.84
11605;BME280;5858;43.076;25.626;2023-04-27T06:53:10;99138.66;;;10.44;78.47
11605;BME280;5858;43.076;25.626;2023-04-27T06:55:38;99166.03;;;10.61;78.72
11605;BME280;5858;43.076;25.626;2023-04-27T06:58:05;99255.38;;;11.11;79.77
11605;BME280;5858;43.076;25.626;2023-04-27T07:00:32;99244.09;;;11.15;79.12
11605;BME280;5858;43.076;25.626;2023-04-27T07:02:59;99195.13;;;10.85;77.81
11605;BME280;5858;43.076;25.626;2023-04-27T07:05:28;99233.72;;;10.76;75.39
11605;BME280;5858;43.076;25.626;2023-04-27T07:07:55;99239.81;;;10.85;78.07
11605;BME280;5858;43.076;25.626;2023-04-27T07:10:24;99232.53;;;10.79;79.42
11605;BME280;5858;43.076;25.626;2023-04-27T07:12:51;99212.16;;;10.63;79.84
11605;BME280;5858;43.076;25.626;2023-04-27T07:15:18;99207.72;;;10.70;80.73
11605;BME280;5858;43.076;25.626;2023-04-27T07:17:45;99189.06;;;10.77;80.70
11605;BME280;5858;43.076;25.626;2023-04-27T07:20:12;99134.50;;;10.56;80.89
11605;BME280;5858;43.076;25.626;2023-04-27T07:22:42;99162.56;;;10.82;80.37
11605;BME280;5858;43.076;25.626;2023-04-27T07:25:09;99259.75;;;11.33;80.63
11605;BME280;5858;43.076;25.626;2023-04-27T07:27:36;99264.44;;;11.10;78.29
11605;BME280;5858;43.076;25.626;2023-04-27T07:30:05;99192.06;;;10.37;75.09
11605;BME280;5858;43.076;25.626;2023-04-27T07:32:34;99260.41;;;10.84;73.17
11605;BME280;5858;43.076;25.626;2023-04-27T07:35:04;99239.84;;;10.70;74.17
11605;BME280;5858;43.076;25.626;2023-04-27T07:37:31;99271.31;;;10.68;75.41
11605;BME280;5858;43.076;25.626;2023-04-27T07:40:00;99170.00;;;10.06;76.68
11605;BME280;5858;43.076;25.626;2023-04-27T07:42:30;99255.25;;;10.68;79.64
11605;BME280;5858;43.076;25.626;2023-04-27T07:44:57;99268.88;;;10.88;79.83
11605;BME280;5858;43.076;25.626;2023-04-27T07:47:24;99221.38;;;10.75;81.15
11605;BME280;5858;43.076;25.626;2023-04-27T07:49:52;99172.63;;;10.44;82.73
11605;BME280;5858;43.076;25.626;2023-04-27T07:52:20;99252.66;;;10.89;81.43
11605;BME280;5858;43.076;25.626;2023-04-27T07:55:01;99260.41;;;10.84;83.02
11605;BME280;5858;43.076;25.626;2023-04-27T07:58:02;99259.56;;;10.98;83.55
11605;BME280;5858;43.076;25.626;2023-04-27T08:00:33;99078.19;;;9.84;83.82
11605;BME280;5858;43.076;25.626;2023-04-27T08:03:13;99267.91;;;11.25;84.66
11605;BME280;5858;43.076;25.626;2023-04-27T08:05:47;99223.81;;;11.06;85.04
11605;BME280;5858;43.076;25.626;2023-04-27T08:08:21;99266.59;;;11.35;83.54
11605;BME280;5858;43.076;25.626;2023-04-27T08:11:38;99248.66;;;11.00;81.35
11605;BME280;5858;43.076;25.626;2023-04-27T08:14:21;99144.75;;;10.53;83.66
11605;BME280;5858;43.076;25.626;2023-04-27T08:16:53;99125.03;;;10.24;84.70
11605;BME280;5858;43.076;25.626;2023-04-27T08:19:28;99227.25;;;10.85;80.84
11605;BME280;5858;43.076;25.626;2023-04-27T08:22:04;99234.56;;;10.91;82.56
11605;BME280;5858;43.076;25.626;2023-04-27T08:24:34;99294.88;;;11.23;83.99
11605;BME280;5858;43.076;25.626;2023-04-27T08:27:16;99281.81;;;11.35;83.06
11605;BME280;5858;43.076;25.626;2023-04-27T08:29:51;99173.88;;;10.62;81.71
11605;BME280;5858;43.076;25.626;2023-04-27T08:32:24;99255.44;;;11.17;83.09
11605;BME280;5858;43.076;25.626;2023-04-27T08:34:54;99247.94;;;11.27;82.14
11605;BME280;5858;43.076;25.626;2023-04-27T08:37:40;99179.00;;;10.79;82.44
11605;BME280;5858;43.076;25.626;2023-04-27T08:40:27;99204.69;;;11.09;80.62
11605;BME280;5858;43.076;25.626;2023-04-27T08:53:35;99213.69;;;11.23;81.90
11605;BME280;5858;43.076;25.626;2023-04-27T08:57:16;99184.78;;;10.97;77.35
11605;BME280;5858;43.076;25.626;2023-04-27T08:59:15;99105.31;;;10.61;79.15
11605;BME280;5858;43.076;25.626;2023-04-27T09:01:46;99276.81;;;11.83;79.25
11605;BME280;5858;43.076;25.626;2023-04-27T09:04:14;99290.28;;;11.89;76.99
11605;BME280;5858;43.076;25.626;2023-04-27T09:06:42;99277.34;;;11.78;75.35
11605;BME280;5858;43.076;25.626;2023-04-27T09:09:20;99227.25;;;11.36;71.50
11605;BME280;5858;43.076;25.626;2023-04-27T09:11:48;99150.94;;;11.32;74.23
11605;BME280;5858;43.076;25.626;2023-04-27T09:14:17;99250.19;;;12.09;76.00
11605;BME280;5858;43.076;25.626;2023-04-27T09:16:44;99256.22;;;12.39;75.76
11605;BME280;5858;43.076;25.626;2023-04-27T09:19:11;99265.81;;;12.55;72.78
11605;BME280;5858;43.076;25.626;2023-04-27T09:21:48;99252.19;;;12.56;72.47
11605;BME280;5858;43.076;25.626;2023-04-27T09:24:17;99278.19;;;12.56;71.32
11605;BME280;5858;43.076;25.626;2023-04-27T09:26:48;99265.38;;;12.51;73.72
11605;BME280;5858;43.076;25.626;2023-04-27T09:29:15;99215.59;;;12.49;74.69
11605;BME280;5858;43.076;25.626;2023-04-27T09:31:42;99193.72;;;12.52;72.67
11605;BME280;5858;43.076;25.626;2023-04-27T09:34:09;99097.75;;;12.13;70.51
11605;BME280;5858;43.076;25.626;2023-04-27T09:36:36;99223.41;;;12.78;70.06
11605;BME280;5858;43.076;25.626;2023-04-27T09:39:06;99248.56;;;13.18;70.60
11605;BME280;5858;43.076;25.626;2023-04-27T09:41:35;99173.75;;;12.61;70.55
11605;BME280;5858;43.076;25.626;2023-04-27T09:44:03;99246.41;;;13.01;69.46
11605;BME280;5858;43.076;25.626;2023-04-27T09:46:34;99267.97;;;13.14;70.83
11605;BME280;5858;43.076;25.626;2023-04-27T09:49:03;99258.41;;;13.05;68.74
11605;BME280;5858;43.076;25.626;2023-04-27T09:51:30;99250.72;;;13.36;71.66
11605;BME280;5858;43.076;25.626;2023-04-27T09:53:59;99180.22;;;13.28;71.01
11605;BME280;5858;43.076;25.626;2023-04-27T09:56:37;99245.81;;;13.66;65.47
11605;BME280;5858;43.076;25.626;2023-04-27T09:59:25;99231.53;;;12.98;68.10
11605;BME280;5858;43.076;25.626;2023-04-27T10:01:59;99193.75;;;13.06;68.80
11605;BME280;5858;43.076;25.626;2023-04-27T10:04:40;99217.44;;;13.44;69.33
11605;BME280;5858;43.076;25.626;2023-04-27T10:07:12;99161.38;;;13.21;70.32
11605;BME280;5858;43.076;25.626;2023-04-27T10:09:41;99228.19;;;13.50;68.78
11605;BME280;5858;43.076;25.626;2023-04-27T10:12:19;99226.59;;;13.08;67.27
11605;BME280;5858;43.076;25.626;2023-04-27T10:14:48;99105.56;;;12.49;69.75
11605;BME280;5858;43.076;25.626;2023-04-27T10:17:15;99192.84;;;13.53;71.62
11605;BME280;5858;43.076;25.626;2023-04-27T10:19:52;99180.03;;;13.62;64.81
11605;BME280;5858;43.076;25.626;2023-04-27T10:22:20;99185.19;;;13.70;66.83
11605;BME280;5858;43.076;25.626;2023-04-27T10:24:49;99163.44;;;14.25;67.69
11605;BME280;5858;43.076;25.626;2023-04-27T10:27:19;99059.63;;;13.84;62.00
11605;BME280;5858;43.076;25.626;2023-04-27T10:29:49;99148.72;;;14.34;60.67
11605;BME280;5858;43.076;25.626;2023-04-27T10:32:20;99236.69;;;14.60;60.94
11605;BME280;5858;43.076;25.626;2023-04-27T10:34:48;99215.16;;;14.53;62.43
11605;BME280;5858;43.076;25.626;2023-04-27T10:37:44;99229.34;;;14.93;61.79
11605;BME280;5858;43.076;25.626;2023-04-27T10:40:13;99194.84;;;14.57;59.68
11605;BME280;5858;43.076;25.626;2023-04-27T10:42:43;99189.31;;;14.32;64.41
11605;BME280;5858;43.076;25.626;2023-04-27T10:45:11;99191.31;;;14.63;67.02
11605;BME280;5858;43.076;25.626;2023-04-27T10:47:39;99163.19;;;14.46;66.48
11605;BME280;5858;43.076;25.626;2023-04-27T10:50:07;99141.34;;;14.74;65.13
11605;BME280;5858;43.076;25.626;2023-04-27T10:52:38;99189.09;;;15.36;63.28
11605;BME280;5858;43.076;25.626;2023-04-27T10:55:16;99184.19;;;15.65;59.94
11605;BME280;5858;43.076;25.626;2023-04-27T10:57:49;99209.28;;;15.27;57.27
11605;BME280;5858;43.076;25.626;2023-04-27T11:00:23;99220.63;;;15.36;61.16
11605;BME280;5858;43.076;25.626;2023-04-27T11:02:50;99194.69;;;14.97;63.94
11605;BME280;5858;43.076;25.626;2023-04-27T11:05:19;99147.53;;;14.81;60.15
11605;BME280;5858;43.076;25.626;2023-04-27T11:07:47;99211.31;;;15.32;60.20
11605;BME280;5858;43.076;25.626;2023-04-27T11:10:15;99189.88;;;15.05;59.26
11605;BME280;5858;43.076;25.626;2023-04-27T11:12:42;99210.34;;;15.58;61.61
11605;BME280;5858;43.076;25.626;2023-04-27T11:15:11;99148.97;;;15.22;61.37
11605;BME280;5858;43.076;25.626;2023-04-27T11:17:39;99173.31;;;15.40;63.41
11605;BME280;5858;43.076;25.626;2023-04-27T11:20:07;99154.28;;;15.66;57.51
11605;BME280;5858;43.076;25.626;2023-04-27T11:22:43;99118.94;;;15.43;61.52
11605;BME280;5858;43.076;25.626;2023-04-27T11:25:10;99140.06;;;16.21;60.21
11605;BME280;5858;43.076;25.626;2023-04-27T11:27:39;99168.03;;;16.70;53.71
11605;BME280;5858;43.076;25.626;2023-04-27T11:30:19;99084.78;;;16.60;56.50
11605;BME280;5858;43.076;25.626;2023-04-27T11:32:47;99136.16;;;16.90;52.21
11605;BME280;5858;43.076;25.626;2023-04-27T11:35:14;99194.44;;;17.46;49.36
11605;BME280;5858;43.076;25.626;2023-04-27T11:37:41;99179.03;;;16.86;52.85
11605;BME280;5858;43.076;25.626;2023-04-27T11:40:09;99147.09;;;16.95;49.53
11605;BME280;5858;43.076;25.626;2023-04-27T11:42:38;99186.66;;;17.38;51.77
11605;BME280;5858;43.076;25.626;2023-04-27T11:45:10;99161.81;;;17.29;53.61
11605;BME280;5858;43.076;25.626;2023-04-27T11:47:45;99126.50;;;17.12;53.58
11605;BME280;5858;43.076;25.626;2023-04-27T11:50:12;99093.19;;;17.00;53.59
11605;BME280;5858;43.076;25.626;2023-04-27T11:52:39;99187.44;;;17.56;52.81
11605;BME280;5858;43.076;25.626;2023-04-27T11:55:07;99188.53;;;17.37;50.58
11605;BME280;5858;43.076;25.626;2023-04-27T11:57:40;99117.00;;;16.00;51.98
11605;BME280;5858;43.076;25.626;2023-04-27T12:00:08;99176.06;;;16.15;52.88
11605;BME280;5858;43.076;25.626;2023-04-27T12:02:40;99174.13;;;15.97;55.38
11605;BME280;5858;43.076;25.626;2023-04-27T12:05:08;99156.03;;;15.79;57.14
11605;BME280;5858;43.076;25.626;2023-04-27T12:07:36;99135.66;;;15.27;58.63
11605;BME280;5858;43.076;25.626;2023-04-27T12:10:04;99187.75;;;15.52;59.95
11605;BME280;5858;43.076;25.626;2023-04-27T12:12:31;99175.34;;;15.44;59.45
11605;BME280;5858;43.076;25.626;2023-04-27T12:14:58;99158.25;;;15.64;60.21
11605;BME280;5858;43.076;25.626;2023-04-27T12:17:25;99192.28;;;15.58;58.93
11605;BME280;5858;43.076;25.626;2023-04-27T12:19:54;99127.72;;;15.00;59.93
11605;BME280;5858;43.076;25.626;2023-04-27T12:22:21;99182.19;;;15.79;59.98
11605;BME280;5858;43.076;25.626;2023-04-27T12:24:49;99067.34;;;15.15;59.78
11605;BME280;5858;43.076;25.626;2023-04-27T12:27:16;99190.41;;;15.90;61.20
11605;BME280;5858;43.076;25.626;2023-04-27T12:29:43;99180.28;;;15.61;62.61
11605;BME280;5858;43.076;25.626;2023-04-27T12:32:13;99126.28;;;14.98;62.54
11605;BME280;5858;43.076;25.626;2023-04-27T12:34:40;99086.50;;;14.62;64.29
11605;BME280;5858;43.076;25.626;2023-04-27T12:37:09;99150.72;;;15.03;64.12
11605;BME280;5858;43.076;25.626;2023-04-27T12:39:36;99148.63;;;15.05;63.85
11605;BME280;5858;43.076;25.626;2023-04-27T12:42:03;99135.22;;;14.98;64.38
11605;BME280;5858;43.076;25.626;2023-04-27T12:44:31;99089.25;;;14.48;66.00
11605;BME280;5858;43.076;25.626;2023-04-27T12:47:01;99142.69;;;14.96;65.08
11605;BME280;5858;43.076;25.626;2023-04-27T12:49:28;98999.00;;;14.39;64.64
11605;BME280;5858;43.076;25.626;2023-04-27T12:51:55;99076.47;;;14.82;62.51
11605;BME280;5858;43.076;25.626;2023-04-27T12:54:24;99021.47;;;14.58;62.12
11605;BME280;5858;43.076;25.626;2023-04-27T12:56:51;99089.53;;;14.78;63.71
11605;BME280;5858;43.076;25.626;2023-04-27T12:59:18;99172.78;;;15.56;62.97
11605;BME280;5858;43.076;25.626;2023-04-27T13:01:45;99184.19;;;15.58;63.34
11605;BME280;5858;43.076;25.626;2023-04-27T13:04:17;99119.66;;;15.00;61.73
11605;BME280;5858;43.076;25.626;2023-04-27T13:06:45;99116.19;;;15.25;63.18
11605;BME280;5858;43.076;25.626;2023-04-27T13:09:12;99144.31;;;15.35;62.90
11605;BME280;5858;43.076;25.626;2023-04-27T13:11:42;99045.66;;;14.65;64.99
11605;BME280;5858;43.076;25.626;2023-04-27T13:14:09;99143.25;;;15.05;63.92
11605;BME280;5858;43.076;25.626;2023-04-27T13:16:37;99126.63;;;15.15;63.48
11605;BME280;5858;43.076;25.626;2023-04-27T13:19:04;99156.69;;;15.43;60.38
11605;BME280;5858;43.076;25.626;2023-04-27T13:21:31;99104.44;;;15.12;56.95
11605;BME280;5858;43.076;25.626;2023-04-27T13:23:58;99122.31;;;15.38;57.90